Time;durP1;ratioP1;P1;durP2;ratioP2;P2;SDS_P1;SDS_P2;PMS_P1;PMS_P2;Temp;Humidity;BMP_temperature;BMP_pressure;BME280_temperature;BME280_humidity;BME280_pressure;Samples;Min_cycle;Max_cycle;Signal;HPM_P1;HPM_P2
2021/09/17 00:01:45;;;;;;;;;;;;;;;10.79;74.86;101312.06;1966280;73;20157;-75
2021/09/17 00:04:12;;;;;;;;;;;;;;;10.77;74.77;101316.05;1966109;73;20113;-75
2021/09/17 00:06:40;;;;;;;;;;;;;;;10.70;76.01;101313.20;1966277;73;20144;-75
2021/09/17 00:09:08;;;;;;;;;;;;;;;10.66;76.16;101318.16;1966249;73;20106;-75
2021/09/17 00:11:36;;;;;;;;;;;;;;;10.66;75.67;101314.20;1966173;73;20105;-74
2021/09/17 00:14:04;;;;;;;;;;;;;;;10.66;75.59;101312.89;1966225;73;20106;-76
2021/09/17 00:16:32;;;;;;;;;;;;;;;10.65;75.40;101316.41;1966238;73;20367;-77
2021/09/17 00:19:00;;;;;;;;;;;;;;;10.65;75.08;101314.25;1966226;73;20180;-77
2021/09/17 00:21:28;;;;;;;;;;;;;;;10.66;75.04;101306.73;1966264;73;20106;-75
2021/09/17 00:23:55;;;;;;;;;;;;;;;10.65;75.14;101311.61;1966228;73;20114;-75
2021/09/17 00:26:23;;;;;;;;;;;;;;;10.60;75.26;101305.16;1966264;73;20153;-76
2021/09/17 00:28:51;;;;;;;;;;;;;;;10.57;75.13;101307.90;1966212;73;20094;-76
2021/09/17 00:31:19;;;;;;;;;;;;;;;10.52;76.02;101313.75;1966182;73;20114;-75
2021/09/17 00:33:46;;;;;;;;;;;;;;;10.50;75.92;101312.47;1963262;72;20148;-77
2021/09/17 00:36:14;;;;;;;;;;;;;;;10.50;75.83;101311.62;1960534;73;20125;-78
2021/09/17 00:38:42;;;;;;;;;;;;;;;10.48;75.86;101316.07;1960546;73;20113;-78
2021/09/17 00:41:11;;;;;;;;;;;;;;;10.48;75.84;101305.54;1960574;73;20109;-79
2021/09/17 00:43:39;;;;;;;;;;;;;;;10.43;76.10;101310.92;1960504;73;20113;-79
2021/09/17 00:46:07;;;;;;;;;;;;;;;10.41;75.94;101309.64;1960525;73;20098;-78
2021/09/17 00:48:35;;;;;;;;;;;;;;;10.41;76.18;101312.74;1960525;73;20626;-77
2021/09/17 00:51:03;;;;;;;;;;;;;;;10.36;75.90;101322.07;1960573;73;20113;-77
2021/09/17 00:53:33;;;;;;;;;;;;;;;10.33;75.71;101319.55;1960740;73;20110;-77
2021/09/17 00:56:01;;;;;;;;;;;;;;;10.30;75.43;101317.42;1960543;73;20144;-77
2021/09/17 00:58:29;;;;;;;;;;;;;;;10.26;75.35;101312.70;1960393;73;20098;-77
2021/09/17 01:00:57;;;;;;;;;;;;;;;10.22;75.17;101310.61;1960604;73;20390;-78
2021/09/17 01:03:25;;;;;;;;;;;;;;;10.19;75.14;101307.20;1960484;73;20153;-77
2021/09/17 01:05:53;;;;;;;;;;;;;;;10.16;75.29;101312.53;1960588;73;20113;-80
2021/09/17 01:08:21;;;;;;;;;;;;;;;10.15;75.20;101313.00;1960517;73;20097;-80
2021/09/17 01:10:49;;;;;;;;;;;;;;;10.12;75.45;101314.39;1960482;73;20156;-78
2021/09/17 01:13:18;;;;;;;;;;;;;;;10.09;76.60;101313.61;1960564;73;20098;-74
2021/09/17 01:15:46;;;;;;;;;;;;;;;10.00;76.94;101316.92;1960525;73;20152;-73
2021/09/17 01:18:13;;;;;;;;;;;;;;;9.93;77.58;101310.56;1960551;73;20097;-74
2021/09/17 01:20:41;;;;;;;;;;;;;;;9.89;77.49;101311.55;1960575;73;20110;-74
2021/09/17 01:23:09;;;;;;;;;;;;;;;9.84;77.52;101311.66;1960500;73;20113;-74
2021/09/17 01:25:37;;;;;;;;;;;;;;;9.76;78.04;101309.24;1960409;73;20273;-75
2021/09/17 01:28:05;;;;;;;;;;;;;;;9.66;78.56;101311.26;1960523;73;20125;-75
2021/09/17 01:30:32;;;;;;;;;;;;;;;9.60;79.03;101308.77;1960567;73;20106;-76
2021/09/17 01:33:00;;;;;;;;;;;;;;;9.54;78.44;101311.56;1960523;73;20106;-75
2021/09/17 01:35:28;;;;;;;;;;;;;;;9.48;78.26;101307.80;1965972;72;20114;-75
2021/09/17 01:37:55;;;;;;;;;;;;;;;9.51;78.16;101314.72;1966118;73;20153;-77
2021/09/17 01:40:23;;;;;;;;;;;;;;;9.52;78.00;101314.69;1966229;73;20098;-74
2021/09/17 01:42:52;;;;;;;;;;;;;;;9.54;77.90;101315.51;1966233;73;20098;-75
2021/09/17 01:45:20;;;;;;;;;;;;;;;9.53;77.82;101305.03;1966135;73;20125;-77
2021/09/17 01:47:48;;;;;;;;;;;;;;;9.53;77.38;101305.03;1966276;73;20118;-74
2021/09/17 01:50:15;;;;;;;;;;;;;;;9.53;77.21;101303.25;1966412;73;20161;-73
2021/09/17 01:52:43;;;;;;;;;;;;;;;9.54;76.94;101312.03;1966120;73;20113;-76
2021/09/17 01:55:11;;;;;;;;;;;;;;;9.52;77.37;101304.64;1966187;73;20177;-75
2021/09/17 01:57:39;;;;;;;;;;;;;;;9.51;77.30;101293.23;1966175;73;20117;-73
2021/09/17 02:00:08;;;;;;;;;;;;;;;9.52;77.08;101302.01;1966202;73;20152;-72
2021/09/17 02:02:38;;;;;;;;;;;;;;;9.53;77.22;101298.45;1966181;73;20148;-73
2021/09/17 02:05:06;;;;;;;;;;;;;;;9.49;77.54;101298.98;1966019;73;20117;-72
2021/09/17 02:07:34;;;;;;;;;;;;;;;9.49;77.53;101296.81;1966200;73;20110;-72
2021/09/17 02:10:02;;;;;;;;;;;;;;;9.46;77.85;101301.25;1966100;73;20114;-71
2021/09/17 02:12:29;;;;;;;;;;;;;;;9.45;77.75;101301.28;1966149;73;20161;-73
2021/09/17 02:14:57;;;;;;;;;;;;;;;9.44;77.36;101302.17;1966112;73;20106;-72
2021/09/17 02:17:26;;;;;;;;;;;;;;;9.44;77.06;101302.17;1966138;72;20165;-73
2021/09/17 02:19:54;;;;;;;;;;;;;;;9.42;76.90;101298.73;1966158;73;20457;-73
2021/09/17 02:22:21;;;;;;;;;;;;;;;9.41;76.82;101298.33;1966186;73;20115;-72
2021/09/17 02:24:49;;;;;;;;;;;;;;;9.43;76.66;101299.16;1966103;73;20156;-72
2021/09/17 02:27:17;;;;;;;;;;;;;;;9.40;76.65;101287.39;1966197;72;20118;-72
2021/09/17 02:29:45;;;;;;;;;;;;;;;9.33;76.76;101293.23;1966131;72;20110;-72
2021/09/17 02:32:13;;;;;;;;;;;;;;;9.24;77.37;101295.67;1966067;73;20102;-72
2021/09/17 02:34:42;;;;;;;;;;;;;;;9.18;77.70;101293.17;1966172;72;20114;-73
2021/09/17 02:37:09;;;;;;;;;;;;;;;9.14;78.26;101299.41;1966255;73;20134;-73
2021/09/17 02:39:38;;;;;;;;;;;;;;;9.11;78.25;101300.81;1966267;73;20110;-72
2021/09/17 02:42:06;;;;;;;;;;;;;;;9.06;78.60;101302.68;1966315;73;20145;-72
2021/09/17 02:44:33;;;;;;;;;;;;;;;9.04;78.76;101301.86;1966218;73;20147;-72
2021/09/17 02:47:01;;;;;;;;;;;;;;;9.02;79.03;101307.60;1966170;73;20239;-72
2021/09/17 02:49:33;;;;;;;;;;;;;;;9.00;78.55;101299.75;1966298;73;20159;-72
2021/09/17 02:51:59;;;;;;;;;;;;;;;9.02;78.04;101304.97;1966022;73;20141;-72
2021/09/17 02:54:26;;;;;;;;;;;;;;;8.99;78.24;101305.03;1966296;73;20110;-72
2021/09/17 02:56:54;;;;;;;;;;;;;;;8.95;78.43;101312.58;1966277;73;20109;-73
2021/09/17 02:59:22;;;;;;;;;;;;;;;8.94;77.95;101309.53;1966215;73;20492;-72
2021/09/17 03:01:50;;;;;;;;;;;;;;;8.92;77.88;101309.55;1966264;73;20118;-72
2021/09/17 03:04:18;;;;;;;;;;;;;;;8.90;77.79;101316.61;1966311;73;20348;-73
2021/09/17 03:06:45;;;;;;;;;;;;;;;8.87;77.89;101320.18;1966250;73;20207;-73
2021/09/17 03:09:13;;;;;;;;;;;;;;;8.87;77.71;101316.24;1966286;72;20110;-71
2021/09/17 03:11:41;;;;;;;;;;;;;;;8.85;77.92;101315.41;1966195;73;20113;-72
2021/09/17 03:14:09;;;;;;;;;;;;;;;8.81;78.06;101315.05;1966240;73;20215;-71
2021/09/17 03:16:37;;;;;;;;;;;;;;;8.80;78.08;101317.73;1966306;73;20113;-72
2021/09/17 03:19:05;;;;;;;;;;;;;;;8.75;78.55;101307.31;1966261;73;20106;-73
2021/09/17 03:21:32;;;;;;;;;;;;;;;8.73;79.34;101309.58;1966310;72;20113;-72
2021/09/17 03:24:01;;;;;;;;;;;;;;;8.69;79.28;101312.26;1966248;73;20114;-72
2021/09/17 03:26:29;;;;;;;;;;;;;;;8.66;78.96;101315.40;1966179;73;20113;-68
2021/09/17 03:28:57;;;;;;;;;;;;;;;8.62;80.01;101312.44;1966244;73;20187;-68
2021/09/17 03:31:25;;;;;;;;;;;;;;;8.61;79.96;101314.20;1966421;73;20109;-67
2021/09/17 03:33:53;;;;;;;;;;;;;;;8.63;79.90;101314.14;1966326;73;20125;-69
2021/09/17 03:36:21;;;;;;;;;;;;;;;8.73;79.61;101318.77;1961870;73;20113;-69
2021/09/17 03:38:48;;;;;;;;;;;;;;;8.91;79.22;101314.84;1960475;73;20098;-68
2021/09/17 03:41:16;;;;;;;;;;;;;;;9.11;78.87;101316.58;1960600;73;20149;-69
2021/09/17 03:43:44;;;;;;;;;;;;;;;9.33;78.40;101316.89;1960605;73;20144;-68
2021/09/17 03:46:12;;;;;;;;;;;;;;;9.51;77.93;101318.20;1960545;73;20114;-68
2021/09/17 03:48:39;;;;;;;;;;;;;;;9.69;77.84;101319.51;1960583;73;20102;-67
2021/09/17 03:51:07;;;;;;;;;;;;;;;9.95;77.55;101312.23;1960557;73;20102;-68
2021/09/17 03:53:35;;;;;;;;;;;;;;;10.21;77.27;101310.19;1960507;73;20110;-67
2021/09/17 03:56:04;;;;;;;;;;;;;;;10.41;77.03;101314.91;1960597;73;20114;-67
2021/09/17 03:58:31;;;;;;;;;;;;;;;10.68;76.89;101318.97;1960649;73;20102;-68
2021/09/17 04:00:59;;;;;;;;;;;;;;;10.92;76.71;101316.03;1960565;73;20114;-68
2021/09/17 04:03:27;;;;;;;;;;;;;;;11.09;76.32;101316.81;1960589;73;20136;-69
2021/09/17 04:05:55;;;;;;;;;;;;;;;11.19;76.05;101314.73;1960480;73;20144;-69
2021/09/17 04:08:23;;;;;;;;;;;;;;;11.34;76.15;101318.64;1960593;73;20113;-69
2021/09/17 04:10:51;;;;;;;;;;;;;;;11.44;75.51;101317.44;1960672;73;20106;-69
2021/09/17 04:13:19;;;;;;;;;;;;;;;11.55;75.26;101310.02;1960598;73;20136;-69
2021/09/17 04:15:48;;;;;;;;;;;;;;;11.74;74.60;101304.96;1960556;73;20102;-69
2021/09/17 04:18:16;;;;;;;;;;;;;;;12.03;74.24;101310.18;1960580;73;20118;-69
2021/09/17 04:20:43;;;;;;;;;;;;;;;12.38;74.01;101300.95;1960491;73;20188;-68
2021/09/17 04:23:11;;;;;;;;;;;;;;;12.73;73.81;101306.20;1960573;73;20544;-68
2021/09/17 04:25:40;;;;;;;;;;;;;;;13.06;73.78;101308.91;1960521;73;20136;-68
2021/09/17 04:28:08;;;;;;;;;;;;;;;13.38;73.49;101307.60;1960583;73;20165;-68
2021/09/17 04:30:36;;;;;;;;;;;;;;;13.71;73.39;101313.72;1960800;73;20129;-68
2021/09/17 04:33:04;;;;;;;;;;;;;;;14.08;73.41;101314.75;1960502;73;20098;-68
2021/09/17 04:35:32;;;;;;;;;;;;;;;14.28;72.76;101320.48;1961857;72;20144;-67
2021/09/17 04:38:01;;;;;;;;;;;;;;;14.32;72.16;101314.59;1966214;73;20143;-67
2021/09/17 04:40:29;;;;;;;;;;;;;;;14.43;71.66;101318.92;1966254;72;20118;-68
2021/09/17 04:42:58;;;;;;;;;;;;;;;14.77;72.07;101313.39;1966255;72;20175;-68
2021/09/17 04:45:26;;;;;;;;;;;;;;;15.13;71.51;101316.55;1966207;73;20422;-71
2021/09/17 04:47:54;;;;;;;;;;;;;;;15.52;71.43;101302.23;1966154;72;20200;-68
2021/09/17 04:50:22;;;;;;;;;;;;;;;15.89;70.95;101307.00;1966295;73;20110;-68
2021/09/17 04:52:51;;;;;;;;;;;;;;;16.28;71.08;101307.15;1966250;73;20110;-67
2021/09/17 04:55:19;;;;;;;;;;;;;;;16.75;71.17;101310.34;1966268;73;20379;-67
2021/09/17 04:57:47;;;;;;;;;;;;;;;17.27;70.83;101312.70;1966195;73;20157;-67
2021/09/17 05:00:16;;;;;;;;;;;;;;;17.68;70.44;101320.05;1966177;73;20118;-67
2021/09/17 05:02:44;;;;;;;;;;;;;;;18.04;69.08;101312.16;1966243;73;20117;-67
2021/09/17 05:05:12;;;;;;;;;;;;;;;18.22;67.74;101317.30;1966249;73;20110;-68
2021/09/17 05:07:40;;;;;;;;;;;;;;;18.47;67.30;101310.81;1966215;72;20140;-68
2021/09/17 05:10:09;;;;;;;;;;;;;;;18.62;65.98;101309.46;1966517;73;20110;-68
2021/09/17 05:12:37;;;;;;;;;;;;;;;18.77;66.06;101305.80;1966173;73;20110;-68
2021/09/17 05:15:06;;;;;;;;;;;;;;;19.00;64.19;101308.84;1966246;73;20097;-68
2021/09/17 05:17:34;;;;;;;;;;;;;;;19.27;64.68;101307.02;1966226;73;20144;-68
2021/09/17 05:20:01;;;;;;;;;;;;;;;19.64;64.75;101312.54;1966231;73;20140;-68
2021/09/17 05:22:29;;;;;;;;;;;;;;;19.96;63.70;101308.16;1966229;73;20140;-68
2021/09/17 05:24:57;;;;;;;;;;;;;;;20.10;61.63;101311.19;1966253;73;20117;-68
2021/09/17 05:27:28;;;;;;;;;;;;;;;20.17;61.31;101310.28;1966147;73;20208;-68
2021/09/17 05:29:57;;;;;;;;;;;;;;;20.31;60.43;101308.83;1966221;73;20152;-68
2021/09/17 05:32:25;;;;;;;;;;;;;;;20.31;57.64;101315.52;1966248;73;20118;-68
2021/09/17 05:34:54;;;;;;;;;;;;;;;20.21;55.99;101312.64;1966220;73;20136;-68
2021/09/17 05:37:22;;;;;;;;;;;;;;;20.29;58.00;101309.42;1961847;73;20117;-68
2021/09/17 05:39:49;;;;;;;;;;;;;;;20.49;55.75;101304.45;1960412;73;20140;-68
2021/09/17 05:42:17;;;;;;;;;;;;;;;20.59;55.18;101300.16;1960523;73;20105;-68
2021/09/17 05:44:45;;;;;;;;;;;;;;;20.77;57.11;101308.22;1960541;73;20106;-68
2021/09/17 05:47:13;;;;;;;;;;;;;;;20.99;55.79;101297.28;1960465;73;20118;-68
2021/09/17 05:49:42;;;;;;;;;;;;;;;21.24;55.54;101296.77;1960682;73;20102;-68
2021/09/17 05:52:09;;;;;;;;;;;;;;;21.58;56.10;101295.10;1960436;73;20122;-69
2021/09/17 05:54:38;;;;;;;;;;;;;;;21.82;54.94;101299.52;1960467;73;20177;-68
2021/09/17 05:57:07;;;;;;;;;;;;;;;22.01;55.32;101300.29;1960524;73;20124;-69
2021/09/17 05:59:35;;;;;;;;;;;;;;;22.30;55.58;101297.52;1960641;73;20157;-69
2021/09/17 06:02:05;;;;;;;;;;;;;;;22.69;55.12;101296.62;1960512;73;20114;-69
2021/09/17 06:04:32;;;;;;;;;;;;;;;22.94;53.28;101298.62;1960542;73;20136;-69
2021/09/17 06:07:00;;;;;;;;;;;;;;;23.03;51.24;101302.38;1960383;73;20114;-69
2021/09/17 06:09:29;;;;;;;;;;;;;;;23.08;52.28;101307.77;1960498;73;20117;-68
2021/09/17 06:11:57;;;;;;;;;;;;;;;23.25;51.74;101309.54;1960508;73;20179;-68
2021/09/17 06:14:26;;;;;;;;;;;;;;;23.43;50.87;101306.64;1960545;73;20105;-68
2021/09/17 06:16:54;;;;;;;;;;;;;;;23.59;50.98;101302.17;1960495;73;20110;-68
2021/09/17 06:19:22;;;;;;;;;;;;;;;23.76;49.83;101308.78;1960418;73;20110;-68
2021/09/17 06:21:50;;;;;;;;;;;;;;;23.98;51.27;101305.13;1960501;73;20114;-67
2021/09/17 06:24:18;;;;;;;;;;;;;;;24.32;49.44;101312.07;1960509;73;20117;-68
2021/09/17 06:26:46;;;;;;;;;;;;;;;24.40;49.63;101306.84;1960492;73;20102;-67
2021/09/17 06:29:13;;;;;;;;;;;;;;;24.41;47.73;101305.37;1960522;73;20106;-67
2021/09/17 06:31:42;;;;;;;;;;;;;;;24.60;48.95;101304.59;1960525;73;20109;-67
2021/09/17 06:34:10;;;;;;;;;;;;;;;24.71;48.68;101296.91;1960573;73;20196;-67
2021/09/17 06:36:38;;;;;;;;;;;;;;;24.97;49.46;101299.08;1961615;72;20112;-67
2021/09/17 06:39:06;;;;;;;;;;;;;;;25.36;48.25;101295.94;1966083;72;20115;-67
2021/09/17 06:41:34;;;;;;;;;;;;;;;25.48;47.60;101295.28;1966111;73;20104;-67
2021/09/17 06:44:02;;;;;;;;;;;;;;;25.74;48.55;101288.77;1966062;73;20112;-67
2021/09/17 06:46:30;;;;;;;;;;;;;;;25.94;45.78;101290.95;1965990;72;20154;-67
2021/09/17 06:48:58;;;;;;;;;;;;;;;26.04;43.42;101282.81;1966068;72;20112;-67
2021/09/17 06:51:26;;;;;;;;;;;;;;;25.99;44.53;101286.48;1966030;72;20116;-68
2021/09/17 06:53:54;;;;;;;;;;;;;;;26.07;44.30;101284.38;1966049;73;20100;-67
2021/09/17 06:56:22;;;;;;;;;;;;;;;26.26;44.23;101283.44;1966065;73;20142;-68
2021/09/17 06:58:51;;;;;;;;;;;;;;;26.33;42.84;101286.73;1965997;73;20100;-68
2021/09/17 07:01:21;;;;;;;;;;;;;;;26.50;43.52;101280.19;1965994;73;20194;-68
2021/09/17 07:03:48;;;;;;;;;;;;;;;26.64;43.14;101278.88;1966079;73;20146;-68
2021/09/17 07:06:16;;;;;;;;;;;;;;;26.86;43.47;101282.48;1966017;73;20103;-67
2021/09/17 07:08:44;;;;;;;;;;;;;;;27.34;42.75;101275.01;1965976;73;20142;-67
2021/09/17 07:11:12;;;;;;;;;;;;;;;27.65;42.59;101280.81;1966027;72;20150;-68
2021/09/17 07:13:40;;;;;;;;;;;;;;;28.00;41.64;101273.62;1965928;73;20108;-68
2021/09/17 07:16:08;;;;;;;;;;;;;;;28.21;41.36;101273.71;1966045;73;20170;-68
2021/09/17 07:18:35;;;;;;;;;;;;;;;28.28;40.72;101274.76;1966024;73;20112;-68
2021/09/17 07:21:05;;;;;;;;;;;;;;;28.46;40.32;101273.31;1966209;73;20112;-68
2021/09/17 07:23:34;;;;;;;;;;;;;;;28.47;40.41;101270.41;1966134;73;20111;-68
2021/09/17 07:26:01;;;;;;;;;;;;;;;28.82;40.78;101268.50;1966102;72;20115;-67
2021/09/17 07:28:33;;;;;;;;;;;;;;;29.16;40.91;101268.05;1966103;73;20108;-68
2021/09/17 07:31:01;;;;;;;;;;;;;;;29.24;40.04;101268.91;1966373;73;20357;-67
2021/09/17 07:33:29;;;;;;;;;;;;;;;29.34;39.51;101265.17;1966135;73;20099;-68
2021/09/17 07:35:58;;;;;;;;;;;;;;;29.41;38.68;101262.11;1966253;72;20171;-68
2021/09/17 07:38:26;;;;;;;;;;;;;;;29.25;38.42;101257.05;1966078;73;20112;-69
2021/09/17 07:40:54;;;;;;;;;;;;;;;29.48;38.46;101267.20;1966087;73;20108;-68
2021/09/17 07:43:22;;;;;;;;;;;;;;;29.78;38.40;101263.44;1966110;73;20107;-68
2021/09/17 07:45:50;;;;;;;;;;;;;;;30.11;38.06;101257.39;1966181;72;20116;-68
2021/09/17 07:48:19;;;;;;;;;;;;;;;30.53;37.90;101259.44;1966077;73;20116;-68
2021/09/17 07:50:47;;;;;;;;;;;;;;;30.73;36.37;101262.03;1966108;72;20123;-68
2021/09/17 07:53:15;;;;;;;;;;;;;;;30.65;36.01;101258.52;1966018;73;20142;-68
2021/09/17 07:55:43;;;;;;;;;;;;;;;30.58;36.23;101255.66;1966094;73;20100;-68
2021/09/17 07:58:13;;;;;;;;;;;;;;;30.60;36.04;101253.63;1966123;73;20112;-69
2021/09/17 08:00:40;;;;;;;;;;;;;;;30.53;35.50;101249.41;1966167;73;20145;-68
2021/09/17 08:03:08;;;;;;;;;;;;;;;30.67;36.03;101250.50;1966158;73;20239;-67
2021/09/17 08:05:36;;;;;;;;;;;;;;;30.76;35.40;101248.06;1966068;73;20111;-68
2021/09/17 08:08:04;;;;;;;;;;;;;;;31.07;35.51;101245.83;1966093;72;20138;-67
2021/09/17 08:10:32;;;;;;;;;;;;;;;31.15;33.47;101249.86;1966112;73;20116;-68
2021/09/17 08:13:00;;;;;;;;;;;;;;;31.08;34.36;101243.45;1966264;72;20159;-68
2021/09/17 08:15:28;;;;;;;;;;;;;;;30.83;33.82;101239.20;1966144;72;20175;-68
2021/09/17 08:17:56;;;;;;;;;;;;;;;30.62;33.52;101236.63;1966128;72;20100;-68
2021/09/17 08:20:24;;;;;;;;;;;;;;;30.73;33.71;101233.49;1966061;72;20107;-68
2021/09/17 08:22:52;;;;;;;;;;;;;;;30.84;33.18;101236.30;1966161;73;20096;-68
2021/09/17 08:25:20;;;;;;;;;;;;;;;31.02;33.68;101236.00;1966179;72;20142;-68
2021/09/17 08:27:48;;;;;;;;;;;;;;;31.22;33.89;101235.52;1966126;73;20139;-68
2021/09/17 08:30:16;;;;;;;;;;;;;;;31.10;32.69;101241.91;1966143;73;20103;-68
2021/09/17 08:32:44;;;;;;;;;;;;;;;30.97;32.97;101234.38;1966066;73;20138;-68
2021/09/17 08:35:12;;;;;;;;;;;;;;;30.93;33.28;101234.38;1966328;72;20146;-68
2021/09/17 08:37:41;;;;;;;;;;;;;;;31.05;32.77;101233.45;1966145;72;20100;-68
2021/09/17 08:40:09;;;;;;;;;;;;;;;31.14;33.14;101241.34;1966094;72;20123;-68
2021/09/17 08:42:37;;;;;;;;;;;;;;;31.32;33.02;101230.67;1966116;73;20143;-68
2021/09/17 08:45:06;;;;;;;;;;;;;;;31.58;32.94;101232.11;1966161;73;20123;-68
2021/09/17 08:47:35;;;;;;;;;;;;;;;31.67;32.22;101226.41;1966125;73;20500;-68
2021/09/17 08:50:05;;;;;;;;;;;;;;;31.08;31.28;101227.13;1965597;73;20141;-68
2021/09/17 08:52:35;;;;;;;;;;;;;;;30.76;31.29;101217.32;1966294;72;20108;-68
2021/09/17 08:55:04;;;;;;;;;;;;;;;30.55;31.88;101221.55;1966146;73;20100;-67
2021/09/17 08:57:32;;;;;;;;;;;;;;;30.32;31.49;101217.91;1966150;73;20112;-67
2021/09/17 09:00:00;;;;;;;;;;;;;;;30.12;31.57;101213.42;1966013;72;20108;-68
2021/09/17 09:02:29;;;;;;;;;;;;;;;30.07;32.15;101214.49;1966217;73;20155;-68
2021/09/17 09:04:59;;;;;;;;;;;;;;;30.20;32.39;101212.05;1966104;73;20108;-66
2021/09/17 09:07:29;;;;;;;;;;;;;;;30.55;32.63;101212.03;1966114;73;20185;-65
2021/09/17 09:09:58;;;;;;;;;;;;;;;30.98;32.73;101215.66;1962019;72;20112;-66
2021/09/17 09:12:26;;;;;;;;;;;;;;;31.39;31.60;101220.70;1965183;72;20142;-66
2021/09/17 09:14:56;;;;;;;;;;;;;;;31.08;31.45;101216.26;1966093;73;20408;-66
2021/09/17 09:17:25;;;;;;;;;;;;;;;30.89;32.19;101212.64;1962917;73;20124;-66
2021/09/17 09:19:53;;;;;;;;;;;;;;;31.03;32.39;101210.52;1964320;73;20150;-68
2021/09/17 09:22:21;;;;;;;;;;;;;;;31.33;31.51;101212.77;1966104;73;20139;-69
2021/09/17 09:24:49;;;;;;;;;;;;;;;30.97;31.26;101201.22;1966070;72;20150;-70
2021/09/17 09:27:18;;;;;;;;;;;;;;;30.71;32.14;101200.22;1966225;73;20186;-68
2021/09/17 09:29:47;;;;;;;;;;;;;;;30.67;32.26;101201.58;1966124;73;20096;-68
2021/09/17 09:32:23;;;;;;;;;;;;;;;30.58;32.82;101202.66;1966108;72;20159;-68
2021/09/17 09:34:52;;;;;;;;;;;;;;;30.85;32.94;101199.08;1965438;72;20386;-68
2021/09/17 09:37:23;;;;;;;;;;;;;;;31.11;32.93;101200.91;1966069;72;20128;-69
2021/09/17 09:39:53;;;;;;;;;;;;;;;31.36;32.86;101204.77;1966183;72;20116;-68
2021/09/17 09:42:21;;;;;;;;;;;;;;;31.60;32.60;101202.86;1966137;72;20115;-68
2021/09/17 09:44:54;;;;;;;;;;;;;;;31.52;32.75;101206.00;1966106;72;20119;-68
2021/09/17 09:47:23;;;;;;;;;;;;;;;31.36;32.83;101200.70;1944192;72;20111;-68
2021/09/17 09:49:52;;;;;;;;;;;;;;;30.78;33.26;101203.90;1964055;73;20143;-68
2021/09/17 09:52:21;;;;;;;;;;;;;;;30.67;33.47;101202.09;1963538;73;20143;-68
2021/09/17 09:54:49;;;;;;;;;;;;;;;30.92;33.67;101201.44;1964163;73;20150;-69
2021/09/17 09:57:16;;;;;;;;;;;;;;;31.30;33.56;101198.20;1966090;73;20100;-68
2021/09/17 09:59:44;;;;;;;;;;;;;;;31.66;33.45;101198.02;1966094;73;20142;-69
2021/09/17 10:02:12;;;;;;;;;;;;;;;31.62;31.92;101198.07;1966068;72;20192;-69
2021/09/17 10:04:42;;;;;;;;;;;;;;;31.41;32.94;101194.19;1965954;73;20108;-69
2021/09/17 10:07:11;;;;;;;;;;;;;;;31.28;32.81;101184.44;1966040;73;20120;-69
2021/09/17 10:09:40;;;;;;;;;;;;;;;31.41;32.89;101187.88;1966084;73;20201;-69
2021/09/17 10:12:09;;;;;;;;;;;;;;;31.25;32.63;101188.91;1966056;73;20108;-69
2021/09/17 10:14:38;;;;;;;;;;;;;;;31.25;33.02;101190.27;1966078;73;20401;-68
2021/09/17 10:17:07;;;;;;;;;;;;;;;31.36;33.20;101183.01;1966042;73;20357;-69
2021/09/17 10:19:36;;;;;;;;;;;;;;;31.17;33.36;101183.88;1962123;73;20096;-68
2021/09/17 10:22:05;;;;;;;;;;;;;;;30.94;33.46;101187.14;1966082;73;20142;-68
2021/09/17 10:24:38;;;;;;;;;;;;;;;30.71;33.78;101175.75;1966120;73;20112;-69
2021/09/17 10:27:20;;;;;;;;;;;;;;;30.69;33.84;101173.73;1966109;73;20378;-68
2021/09/17 10:29:52;;;;;;;;;;;;;;;30.62;33.78;101178.20;1966006;73;20150;-68
2021/09/17 10:32:34;;;;;;;;;;;;;;;30.55;33.89;101177.23;1966024;73;20142;-68
2021/09/17 10:35:08;;;;;;;;;;;;;;;30.32;34.14;101166.30;1966060;73;20381;-68
2021/09/17 10:37:50;;;;;;;;;;;;;;;30.26;33.71;101176.02;1965066;71;20116;-68
2021/09/17 10:40:18;;;;;;;;;;;;;;;29.51;33.91;101165.63;1965912;72;20147;-68
2021/09/17 10:42:53;;;;;;;;;;;;;;;29.40;34.25;101164.98;1966069;73;20105;-68
2021/09/17 10:45:21;;;;;;;;;;;;;;;29.59;34.39;101165.61;1951161;72;20099;-68
2021/09/17 10:47:54;;;;;;;;;;;;;;;29.96;34.33;101158.71;1966072;73;20178;-69
2021/09/17 10:50:19;;;;;;;;;;;;;;;30.16;34.21;101155.05;1965491;73;20190;-69
2021/09/17 10:52:48;;;;;;;;;;;;;;;30.21;34.28;101153.97;1966006;72;20138;-69
2021/09/17 10:55:20;;;;;;;;;;;;;;;30.12;34.17;101156.41;1966187;73;20147;-69
2021/09/17 10:57:59;;;;;;;;;;;;;;;29.75;34.17;101149.30;1944330;72;20142;-69
2021/09/17 11:00:28;;;;;;;;;;;;;;;29.43;34.20;101152.93;1937165;72;20131;-69
2021/09/17 11:02:56;;;;;;;;;;;;;;;29.06;34.37;101151.62;1911787;72;20116;-68
2021/09/17 11:05:24;;;;;;;;;;;;;;;29.09;34.80;101140.44;1966209;72;20108;-67
2021/09/17 11:07:52;;;;;;;;;;;;;;;29.11;34.83;101141.11;1966191;73;20142;-67
2021/09/17 11:10:25;;;;;;;;;;;;;;;29.01;35.07;101137.72;1966169;73;20100;-68
2021/09/17 11:12:55;;;;;;;;;;;;;;;29.04;35.08;101134.68;1966225;72;20198;-68
2021/09/17 11:15:23;;;;;;;;;;;;;;;28.91;35.21;101137.91;1964020;72;20142;-68
2021/09/17 11:17:56;;;;;;;;;;;;;;;28.86;35.44;101134.34;1966113;73;20150;-68
2021/09/17 11:20:29;;;;;;;;;;;;;;;28.59;34.93;101134.20;1966233;72;20116;-67
2021/09/17 11:22:58;;;;;;;;;;;;;;;28.27;35.37;101136.31;1966218;73;20120;-68
2021/09/17 11:25:27;;;;;;;;;;;;;;;28.18;35.76;101135.44;1966177;73;20112;-69
2021/09/17 11:27:55;;;;;;;;;;;;;;;27.78;35.55;101132.94;1966113;72;20116;-71
2021/09/17 11:30:24;;;;;;;;;;;;;;;27.38;35.91;101129.53;1966120;73;20142;-69
2021/09/17 11:32:52;;;;;;;;;;;;;;;27.13;36.34;101119.39;1966165;72;20103;-70
2021/09/17 11:35:20;;;;;;;;;;;;;;;26.92;36.61;101128.35;1966117;73;20112;-70
2021/09/17 11:37:48;;;;;;;;;;;;;;;26.56;36.48;101122.47;1966323;72;20116;-69
2021/09/17 11:40:16;;;;;;;;;;;;;;;26.33;37.08;101120.72;1966246;72;20110;-69
2021/09/17 11:42:44;;;;;;;;;;;;;;;26.23;37.44;101118.61;1966441;73;20223;-70
2021/09/17 11:45:17;;;;;;;;;;;;;;;26.11;37.60;101117.97;1966519;73;20098;-69
2021/09/17 11:47:50;;;;;;;;;;;;;;;25.83;37.58;101118.47;1966614;73;20113;-70
2021/09/17 11:50:18;;;;;;;;;;;;;;;25.67;38.13;101115.56;1966449;73;20111;-69
2021/09/17 11:52:47;;;;;;;;;;;;;;;25.59;38.40;101108.23;1966507;73;20136;-69
2021/09/17 11:55:16;;;;;;;;;;;;;;;25.65;38.53;101106.78;1966482;73;20141;-69
2021/09/17 11:57:44;;;;;;;;;;;;;;;25.73;38.57;101106.39;1966463;73;20097;-69
2021/09/17 12:00:17;;;;;;;;;;;;;;;25.72;38.38;101108.72;1966478;73;20114;-69
2021/09/17 12:02:45;;;;;;;;;;;;;;;25.54;38.30;101110.00;1963496;72;20097;-70
2021/09/17 12:05:21;;;;;;;;;;;;;;;25.37;38.73;101106.76;1966500;73;20154;-69
2021/09/17 12:07:50;;;;;;;;;;;;;;;25.34;38.91;101101.17;1965480;71;20215;-70
2021/09/17 12:10:19;;;;;;;;;;;;;;;25.33;39.23;101098.12;1966462;73;20118;-70
2021/09/17 12:12:48;;;;;;;;;;;;;;;25.24;38.62;101101.19;1966507;73;20397;-69
2021/09/17 12:15:26;;;;;;;;;;;;;;;25.08;39.08;101098.73;1966489;73;20379;-69
2021/09/17 12:18:04;;;;;;;;;;;;;;;25.01;39.09;101103.36;1966426;73;20391;-69
2021/09/17 12:20:43;;;;;;;;;;;;;;;24.87;39.35;101098.42;1966563;73;20140;-69
2021/09/17 12:23:12;;;;;;;;;;;;;;;24.69;39.47;101101.49;1966488;73;20106;-69
2021/09/17 12:25:40;;;;;;;;;;;;;;;24.65;39.66;101099.08;1966499;73;20101;-69
2021/09/17 12:28:08;;;;;;;;;;;;;;;24.58;39.79;101101.98;1966494;73;20106;-69
2021/09/17 12:30:38;;;;;;;;;;;;;;;24.54;39.94;101096.53;1966313;73;20188;-69
2021/09/17 12:33:07;;;;;;;;;;;;;;;24.52;40.01;101094.96;1966474;73;20110;-69
2021/09/17 12:35:35;;;;;;;;;;;;;;;24.41;40.17;101094.60;1966454;73;20114;-69
2021/09/17 12:38:04;;;;;;;;;;;;;;;24.31;40.24;101095.08;1966526;73;20106;-70
2021/09/17 12:40:32;;;;;;;;;;;;;;;24.21;40.36;101086.51;1964221;72;20102;-69
2021/09/17 12:43:08;;;;;;;;;;;;;;;24.27;40.80;101092.69;1960319;73;20118;-69
2021/09/17 12:45:38;;;;;;;;;;;;;;;24.36;40.73;101090.97;1960441;73;20388;-68